Time;durP1;ratioP1;P1;durP2;ratioP2;P2;SDS_P1;SDS_P2;PMS_P1;PMS_P2;Temp;Humidity;BMP_temperature;BMP_pressure;BME280_temperature;BME280_humidity;BME280_pressure;Samples;Min_cycle;Max_cycle;Signal;HPM_P1;HPM_P2
2023/06/22 00:02:26;;;;;;;;;;;;;;;26.35;55.45;101228.06;2268211;76;51710;-75
2023/06/22 00:05:28;;;;;;;;;;;;;;;26.35;55.45;101234.84;2315462;76;51442;-76
2023/06/22 00:08:29;;;;;;;;;;;;;;;26.34;55.33;101245.41;2293167;76;51565;-75
2023/06/22 00:11:33;;;;;;;;;;;;;;;26.34;55.27;101235.38;2261871;77;51320;-75
2023/06/22 00:14:34;;;;;;;;;;;;;;;26.34;55.35;101238.62;2234536;78;49710;-75
2023/06/22 00:17:36;;;;;;;;;;;;;;;26.33;55.23;101239.12;2233973;79;50659;-75
2023/06/22 00:20:38;;;;;;;;;;;;;;;26.32;55.41;101236.65;2257272;78;50624;-76
2023/06/22 00:23:39;;;;;;;;;;;;;;;26.31;55.20;101240.39;2257147;79;50328;-76
2023/06/22 00:26:41;;;;;;;;;;;;;;;26.31;55.19;101239.03;2233605;79;51671;-76
2023/06/22 00:29:42;;;;;;;;;;;;;;;26.28;55.19;101247.95;2257211;79;51434;-76
2023/06/22 00:32:45;;;;;;;;;;;;;;;26.29;55.13;101255.02;2257158;79;50419;-75
2023/06/22 00:35:47;;;;;;;;;;;;;;;26.29;55.20;101260.45;2240945;78;51464;-75
2023/06/22 00:38:50;;;;;;;;;;;;;;;26.30;55.19;101258.56;2222100;79;51513;-75
2023/06/22 00:41:52;;;;;;;;;;;;;;;26.29;55.23;101259.09;2237606;77;50683;-74
2023/06/22 00:44:53;;;;;;;;;;;;;;;26.29;55.08;101261.80;2254745;78;51572;-75
2023/06/22 00:47:58;;;;;;;;;;;;;;;26.29;55.12;101265.88;2254228;78;50653;-75
2023/06/22 00:51:00;;;;;;;;;;;;;;;26.28;55.10;101266.94;2207769;79;52441;-75
2023/06/22 00:54:01;;;;;;;;;;;;;;;26.29;55.07;101259.09;2254351;78;51441;-75
2023/06/22 00:57:03;;;;;;;;;;;;;;;26.29;55.03;101260.45;2254113;78;50707;-76
2023/06/22 01:00:09;;;;;;;;;;;;;;;26.29;55.01;101265.05;2254292;77;51421;-75
2023/06/22 01:03:11;;;;;;;;;;;;;;;26.29;55.03;101266.41;2231539;79;49617;-74
2023/06/22 01:06:14;;;;;;;;;;;;;;;26.29;55.00;101268.59;2231290;79;51506;-75
2023/06/22 01:09:16;;;;;;;;;;;;;;;26.29;54.90;101269.12;2254338;79;51458;-75
2023/06/22 01:12:17;;;;;;;;;;;;;;;26.29;54.91;101260.45;2255643;77;51564;-75
2023/06/22 01:15:21;;;;;;;;;;;;;;;26.28;54.88;101262.02;2292613;77;52363;-75
2023/06/22 01:18:25;;;;;;;;;;;;;;;26.29;54.93;101284.86;2315094;75;51500;-74
2023/06/22 01:21:26;;;;;;;;;;;;;;;26.28;54.94;101277.79;2315560;76;22389;-75
2023/06/22 01:24:28;;;;;;;;;;;;;;;26.28;54.84;101277.79;2315353;77;51486;-75
2023/06/22 01:27:35;;;;;;;;;;;;;;;26.28;54.85;101276.43;2315222;75;50290;-75
2023/06/22 01:30:39;;;;;;;;;;;;;;;26.27;54.79;101274.75;2315362;75;50297;-75
2023/06/22 01:33:41;;;;;;;;;;;;;;;26.27;54.83;101273.39;2315567;76;22500;-75
2023/06/22 01:36:43;;;;;;;;;;;;;;;26.28;54.77;101265.58;2314993;75;51502;-75
2023/06/22 01:39:45;;;;;;;;;;;;;;;26.28;54.77;101275.08;2293173;75;52652;-75
2023/06/22 01:42:46;;;;;;;;;;;;;;;26.28;54.79;101277.79;2278878;76;51304;-77
2023/06/22 01:45:48;;;;;;;;;;;;;;;26.27;54.80;101284.25;2257061;77;51447;-76
2023/06/22 01:48:49;;;;;;;;;;;;;;;26.27;54.81;101293.74;2256942;79;51530;-76
2023/06/22 01:51:51;;;;;;;;;;;;;;;26.28;54.78;101287.28;2233846;78;49608;-76
2023/06/22 01:54:53;;;;;;;;;;;;;;;26.27;54.80;101292.38;2233999;78;49965;-77
2023/06/22 01:57:54;;;;;;;;;;;;;;;26.28;54.85;101294.57;2233510;79;50361;-77
2023/06/22 02:00:57;;;;;;;;;;;;;;;26.28;54.86;101291.86;2257089;79;50250;-76
2023/06/22 02:04:01;;;;;;;;;;;;;;;26.27;54.89;101297.81;2233862;78;51676;-77
2023/06/22 02:07:02;;;;;;;;;;;;;;;26.27;54.80;101300.52;2256512;78;50769;-76
2023/06/22 02:10:04;;;;;;;;;;;;;;;26.26;54.82;101298.88;2257100;78;50263;-76
2023/06/22 02:13:07;;;;;;;;;;;;;;;26.26;54.76;101286.67;2268151;77;50319;-77
2023/06/22 02:16:08;;;;;;;;;;;;;;;26.26;54.75;101291.27;2293219;77;52569;-76
2023/06/22 02:19:10;;;;;;;;;;;;;;;26.26;54.79;101289.38;2315350;75;52185;-76
2023/06/22 02:22:13;;;;;;;;;;;;;;;26.26;54.71;101294.80;2315395;76;51393;-77
2023/06/22 02:25:15;;;;;;;;;;;;;;;26.26;54.68;101312.44;2315319;76;50308;-76
2023/06/22 02:28:16;;;;;;;;;;;;;;;26.26;54.80;101309.73;2267611;77;51713;-76
2023/06/22 02:31:18;;;;;;;;;;;;;;;26.27;54.77;101314.63;2293347;77;51516;-76
2023/06/22 02:34:20;;;;;;;;;;;;;;;26.25;54.76;101309.41;2315303;77;50432;-77
2023/06/22 02:37:24;;;;;;;;;;;;;;;26.26;54.71;101312.97;2315097;77;50622;-78
2023/06/22 02:40:25;;;;;;;;;;;;;;;26.25;54.73;101305.33;2315499;76;22355;-76
2023/06/22 02:43:27;;;;;;;;;;;;;;;26.26;54.68;101305.66;2271636;77;50337;-76
2023/06/22 02:46:28;;;;;;;;;;;;;;;26.26;54.71;101308.37;2315207;77;50618;-76
2023/06/22 02:49:30;;;;;;;;;;;;;;;26.25;54.65;101298.55;2315329;77;51567;-76
2023/06/22 02:52:31;;;;;;;;;;;;;;;26.26;54.61;101307.02;2293141;77;52482;-77
2023/06/22 02:55:33;;;;;;;;;;;;;;;26.25;54.58;101299.08;2293400;77;51519;-77
2023/06/22 02:58:38;;;;;;;;;;;;;;;26.24;54.58;101303.68;2292680;77;50702;-77
2023/06/22 03:01:39;;;;;;;;;;;;;;;26.25;54.59;101315.36;2315221;76;22349;-76
2023/06/22 03:04:42;;;;;;;;;;;;;;;26.25;54.57;101305.33;2293115;77;50130;-77
2023/06/22 03:07:44;;;;;;;;;;;;;;;26.24;54.60;101306.39;2293240;77;50344;-77
2023/06/22 03:10:45;;;;;;;;;;;;;;;26.24;54.60;101305.04;2310674;76;50647;-77
2023/06/22 03:13:47;;;;;;;;;;;;;;;26.24;54.58;101304.21;2231924;77;51559;-75
2023/06/22 03:16:48;;;;;;;;;;;;;;;26.24;54.63;101307.75;2230951;79;51719;-75
2023/06/22 03:19:50;;;;;;;;;;;;;;;26.25;54.59;101314.00;2254198;77;51430;-76
2023/06/22 03:22:52;;;;;;;;;;;;;;;26.25;54.58;101311.29;2231194;79;51537;-76
2023/06/22 03:25:55;;;;;;;;;;;;;;;26.24;54.61;101298.78;2231454;77;51529;-76
2023/06/22 03:28:57;;;;;;;;;;;;;;;26.24;54.60;101300.97;2230875;78;50897;-76
2023/06/22 03:31:58;;;;;;;;;;;;;;;26.25;54.53;101303.15;2254218;77;50340;-76
2023/06/22 03:35:00;;;;;;;;;;;;;;;26.25;54.55;101303.97;2254373;79;50343;-75
2023/06/22 03:38:01;;;;;;;;;;;;;;;26.25;54.55;101303.15;2254063;78;50716;-75
2023/06/22 03:41:03;;;;;;;;;;;;;;;26.25;54.51;101305.33;2264998;77;51470;-76
2023/06/22 03:44:05;;;;;;;;;;;;;;;26.24;54.56;101310.46;2294671;77;51400;-75
2023/06/22 03:47:07;;;;;;;;;;;;;;;26.24;54.49;101305.56;2315163;75;51997;-75
2023/06/22 03:50:08;;;;;;;;;;;;;;;26.25;54.53;101314.00;2293522;77;51632;-75
2023/06/22 03:53:10;;;;;;;;;;;;;;;26.25;54.51;101306.69;2268323;77;51225;-75
2023/06/22 03:56:12;;;;;;;;;;;;;;;26.25;54.51;101309.41;2293245;77;51540;-75
2023/06/22 03:59:13;;;;;;;;;;;;;;;26.25;54.51;101309.41;2293275;76;51398;-75
2023/06/22 04:02:15;;;;;;;;;;;;;;;26.25;54.56;101306.69;2315340;75;50227;-75
2023/06/22 04:05:21;;;;;;;;;;;;;;;26.26;54.55;101312.97;2293487;75;50234;-76
2023/06/22 04:08:20;;;;;;;;;;;;;;;26.25;54.55;101309.41;2291821;77;22292;-75
2023/06/22 04:11:22;;;;;;;;;;;;;;;26.26;54.53;101318.39;2288609;76;50234;-75
2023/06/22 04:14:23;;;;;;;;;;;;;;;26.25;54.58;101316.18;2255609;78;51481;-76
2023/06/22 04:17:25;;;;;;;;;;;;;;;26.24;54.57;101310.46;2207381;79;51275;-76
2023/06/22 04:20:26;;;;;;;;;;;;;;;26.25;54.57;101318.07;2231280;79;50416;-75
2023/06/22 04:23:28;;;;;;;;;;;;;;;26.25;54.54;101314.00;2254283;77;50241;-75
2023/06/22 04:26:29;;;;;;;;;;;;;;;26.25;54.61;101322.97;2230975;79;50606;-75
2023/06/22 04:29:31;;;;;;;;;;;;;;;26.24;54.58;101334.05;2207553;79;52868;-75
2023/06/22 04:32:33;;;;;;;;;;;;;;;26.25;54.52;101335.17;2231211;79;50435;-76
2023/06/22 04:35:35;;;;;;;;;;;;;;;26.24;54.51;101337.59;2254341;79;50062;-76
2023/06/22 04:38:36;;;;;;;;;;;;;;;26.26;54.49;101337.39;2231078;77;50348;-75
2023/06/22 04:41:44;;;;;;;;;;;;;;;26.26;54.57;101334.67;2250811;77;50841;-75
2023/06/22 04:44:46;;;;;;;;;;;;;;;26.29;54.58;101336.95;2234374;79;51614;-76
2023/06/22 04:47:47;;;;;;;;;;;;;;;26.33;54.49;101345.47;2257217;79;50611;-75
2023/06/22 04:50:49;;;;;;;;;;;;;;;26.35;54.42;101342.84;2257277;79;50220;-76
2023/06/22 04:53:50;;;;;;;;;;;;;;;26.38;54.12;101345.11;2234561;78;51660;-75
2023/06/22 04:57:01;;;;;;;;;;;;;;;26.41;53.66;101346.56;2260649;78;50634;-76
2023/06/22 04:59:55;;;;;;;;;;;;;;;26.38;53.35;101347.83;2232170;79;22578;-76
2023/06/22 05:02:57;;;;;;;;;;;;;;;26.31;51.16;101344.84;2257538;77;50177;-75
2023/06/22 05:05:59;;;;;;;;;;;;;;;26.09;50.29;101342.48;2210582;79;52552;-76
2023/06/22 05:09:01;;;;;;;;;;;;;;;25.77;50.48;101345.63;2258275;77;51419;-77
2023/06/22 05:12:04;;;;;;;;;;;;;;;25.64;50.70;101347.86;2257457;77;50728;-77
2023/06/22 05:15:07;;;;;;;;;;;;;;;25.60;50.63;101347.44;2301602;77;50473;-76
2023/06/22 05:18:11;;;;;;;;;;;;;;;25.48;50.65;101346.95;2292771;76;51746;-76
2023/06/22 05:21:12;;;;;;;;;;;;;;;25.31;50.87;101348.77;2316670;75;22814;-76
2023/06/22 05:24:14;;;;;;;;;;;;;;;25.42;51.01;101348.63;2293878;75;51558;-76
2023/06/22 05:27:16;;;;;;;;;;;;;;;25.47;50.78;101349.36;2295791;77;50698;-75
2023/06/22 05:30:18;;;;;;;;;;;;;;;25.46;50.66;101349.03;2268547;77;52493;-77
2023/06/22 05:33:19;;;;;;;;;;;;;;;25.37;50.95;101349.27;2293678;75;50392;-75
2023/06/22 05:36:24;;;;;;;;;;;;;;;25.36;50.95;101352.20;2315283;75;50225;-76
2023/06/22 05:39:25;;;;;;;;;;;;;;;25.44;51.10;101357.39;2293895;77;22383;-75
2023/06/22 05:42:27;;;;;;;;;;;;;;;25.51;50.68;101353.29;2231184;77;51047;-76
2023/06/22 05:45:28;;;;;;;;;;;;;;;25.59;50.55;101359.86;2292786;75;50558;-77
2023/06/22 05:48:30;;;;;;;;;;;;;;;25.53;50.62;101368.29;2293495;77;50636;-76
2023/06/22 05:51:31;;;;;;;;;;;;;;;25.52;50.45;101368.52;2256290;77;51437;-75
2023/06/22 05:54:33;;;;;;;;;;;;;;;25.39;50.69;101368.85;2254219;77;50961;-75
2023/06/22 05:57:34;;;;;;;;;;;;;;;25.33;50.69;101385.96;2284435;77;51497;-73
2023/06/22 06:00:36;;;;;;;;;;;;;;;25.32;50.92;101376.15;2271944;77;53936;-72
2023/06/22 06:03:42;;;;;;;;;;;;;;;25.37;51.09;101373.64;2300033;76;50639;-73
2023/06/22 06:06:41;;;;;;;;;;;;;;;25.41;51.25;101374.90;2307597;76;23063;-73
2023/06/22 06:09:42;;;;;;;;;;;;;;;25.50;51.48;101378.73;2287009;77;51536;-74
2023/06/22 06:12:44;;;;;;;;;;;;;;;25.57;51.62;101379.56;2240344;77;50683;-74
2023/06/22 06:15:46;;;;;;;;;;;;;;;25.60;51.64;101375.89;2233863;78;51514;-73
2023/06/22 06:18:49;;;;;;;;;;;;;;;25.64;51.70;101376.31;2233928;78;52608;-73
2023/06/22 06:21:51;;;;;;;;;;;;;;;25.67;52.12;101367.75;2234292;78;50317;-75
2023/06/22 06:24:52;;;;;;;;;;;;;;;25.71;51.75;101360.84;2233906;79;51428;-73
2023/06/22 06:27:54;;;;;;;;;;;;;;;25.82;51.82;101354.77;2233943;78;50223;-72
2023/06/22 06:30:56;;;;;;;;;;;;;;;25.95;51.11;101363.41;2233893;79;52321;-74
2023/06/22 06:33:57;;;;;;;;;;;;;;;26.03;51.13;101360.45;2233753;79;51304;-73
2023/06/22 06:36:59;;;;;;;;;;;;;;;25.99;51.38;101368.69;2233631;79;50219;-72
2023/06/22 06:40:00;;;;;;;;;;;;;;;26.00;51.46;101377.69;2234061;79;50339;-73
2023/06/22 06:43:02;;;;;;;;;;;;;;;26.10;51.24;101369.92;2256776;77;50327;-73
2023/06/22 06:46:04;;;;;;;;;;;;;;;26.06;51.25;101376.81;2257280;79;51459;-73
2023/06/22 06:49:05;;;;;;;;;;;;;;;26.10;51.28;101378.56;2257130;77;52271;-73
2023/06/22 06:52:07;;;;;;;;;;;;;;;26.22;51.00;101374.95;2257223;77;50282;-73
2023/06/22 06:55:11;;;;;;;;;;;;;;;26.22;50.64;101369.52;2210520;79;51130;-72
2023/06/22 06:58:13;;;;;;;;;;;;;;;26.24;50.52;101367.97;2234050;79;22317;-71
2023/06/22 07:01:14;;;;;;;;;;;;;;;26.27;50.31;101360.74;2234211;78;50323;-71
2023/06/22 07:04:16;;;;;;;;;;;;;;;26.30;50.37;101363.02;2257187;77;51351;-73
2023/06/22 07:07:18;;;;;;;;;;;;;;;26.31;50.21;101356.56;2209903;79;52542;-73
2023/06/22 07:10:19;;;;;;;;;;;;;;;26.28;50.33;101354.25;2257340;77;51470;-72
2023/06/22 07:13:21;;;;;;;;;;;;;;;26.29;50.05;101348.63;2254278;75;51378;-73
2023/06/22 07:16:23;;;;;;;;;;;;;;;26.35;49.71;101333.88;2209655;79;49631;-74
2023/06/22 07:19:26;;;;;;;;;;;;;;;26.36;49.56;101328.74;2210191;79;51737;-73
2023/06/22 07:22:28;;;;;;;;;;;;;;;26.38;49.45;101328.83;2257198;77;51596;-72
2023/06/22 07:25:30;;;;;;;;;;;;;;;26.42;49.34;101333.31;2233799;79;52339;-73
2023/06/22 07:28:36;;;;;;;;;;;;;;;26.43;49.21;101327.66;2256859;79;51460;-74
2023/06/22 07:31:34;;;;;;;;;;;;;;;26.45;49.14;101323.38;2234018;78;22469;-71
2023/06/22 07:34:36;;;;;;;;;;;;;;;26.43;49.27;101332.25;2234005;79;50193;-73
2023/06/22 07:37:38;;;;;;;;;;;;;;;26.45;49.17;101326.91;2256804;79;50389;-73
2023/06/22 07:40:41;;;;;;;;;;;;;;;26.47;49.06;101322.64;2257455;77;51611;-72
2023/06/22 07:43:43;;;;;;;;;;;;;;;26.46;49.04;101320.95;2220116;77;51082;-73
2023/06/22 07:46:44;;;;;;;;;;;;;;;26.44;49.04;101320.37;2315080;76;50627;-73
2023/06/22 07:49:49;;;;;;;;;;;;;;;26.42;49.00;101331.96;2315464;75;51476;-72
2023/06/22 07:52:52;;;;;;;;;;;;;;;26.42;48.85;101328.72;2293388;75;51441;-72
2023/06/22 07:55:53;;;;;;;;;;;;;;;26.41;48.71;101329.78;2293951;77;24868;-74
2023/06/22 07:58:58;;;;;;;;;;;;;;;26.39;48.79;101320.19;2293052;75;51700;-74
2023/06/22 08:01:58;;;;;;;;;;;;;;;26.41;48.70;101319.42;2293839;77;22730;-73
2023/06/22 08:05:00;;;;;;;;;;;;;;;26.38;48.55;101324.77;2293397;76;51384;-73
2023/06/22 08:08:01;;;;;;;;;;;;;;;26.35;48.47;101323.02;2292542;77;50262;-72
2023/06/22 08:11:03;;;;;;;;;;;;;;;26.36;48.54;101326.03;2267544;75;50679;-73
2023/06/22 08:14:04;;;;;;;;;;;;;;;26.35;48.20;101324.38;2258480;77;50699;-73
2023/06/22 08:17:07;;;;;;;;;;;;;;;26.34;48.20;101324.09;2233789;79;50628;-72
2023/06/22 08:20:10;;;;;;;;;;;;;;;26.35;48.24;101320.31;2234358;79;50267;-72
2023/06/22 08:23:11;;;;;;;;;;;;;;;26.35;47.98;101320.31;2233936;78;50935;-73
2023/06/22 08:26:13;;;;;;;;;;;;;;;26.34;48.12;101323.55;2233684;78;51442;-72
2023/06/22 08:29:14;;;;;;;;;;;;;;;26.33;47.99;101322.41;2233793;78;51837;-74
2023/06/22 08:32:16;;;;;;;;;;;;;;;26.36;48.08;101321.96;2257224;77;51508;-74
2023/06/22 08:35:18;;;;;;;;;;;;;;;26.33;47.98;101319.69;2210243;79;51630;-73
2023/06/22 08:38:19;;;;;;;;;;;;;;;26.34;47.98;101322.73;2256934;79;51482;-71
2023/06/22 08:41:21;;;;;;;;;;;;;;;26.34;48.09;101314.59;2245489;77;51451;-73
2023/06/22 08:44:23;;;;;;;;;;;;;;;26.33;48.07;101313.73;2278237;75;50734;-74
2023/06/22 08:47:24;;;;;;;;;;;;;;;26.34;48.01;101317.30;2315119;76;51490;-72
2023/06/22 08:50:26;;;;;;;;;;;;;;;26.34;48.08;101318.66;2293120;75;51830;-74
2023/06/22 08:53:27;;;;;;;;;;;;;;;26.34;48.06;101320.02;2293542;76;50604;-73
2023/06/22 08:56:29;;;;;;;;;;;;;;;26.37;48.10;101316.86;2293013;77;51444;-74
2023/06/22 08:59:30;;;;;;;;;;;;;;;26.37;48.18;101322.28;2315296;75;51621;-74
2023/06/22 09:02:32;;;;;;;;;;;;;;;26.37;48.09;101316.86;2293300;77;51425;-73
2023/06/22 09:05:34;;;;;;;;;;;;;;;26.36;48.00;101326.89;2315325;75;50372;-74
2023/06/22 09:08:36;;;;;;;;;;;;;;;26.38;48.10;101321.23;2292621;77;50658;-74
2023/06/22 09:11:37;;;;;;;;;;;;;;;26.39;48.20;101314.77;2266627;78;51096;-73
2023/06/22 09:14:39;;;;;;;;;;;;;;;26.40;47.91;101313.70;2233413;78;51484;-73
2023/06/22 09:17:41;;;;;;;;;;;;;;;26.41;47.93;101316.71;2234035;78;51339;-73
2023/06/22 09:20:43;;;;;;;;;;;;;;;26.38;47.71;101305.77;2257193;78;50235;-73
2023/06/22 09:23:46;;;;;;;;;;;;;;;26.39;47.89;101301.20;2210153;77;51651;-73
2023/06/22 09:26:48;;;;;;;;;;;;;;;26.38;47.83;101307.66;2234069;79;50294;-74
2023/06/22 09:29:50;;;;;;;;;;;;;;;26.41;47.66;101307.21;2257186;77;50339;-73
2023/06/22 09:32:52;;;;;;;;;;;;;;;26.40;47.71;101312.34;2257147;78;52467;-72
2023/06/22 09:35:53;;;;;;;;;;;;;;;26.40;47.87;101305.56;2233792;78;50058;-71
2023/06/22 09:38:58;;;;;;;;;;;;;;;26.40;47.67;101300.95;2233877;78;51427;-75
2023/06/22 09:42:03;;;;;;;;;;;;;;;26.42;47.47;101303.47;2269254;77;50777;-72
2023/06/22 09:45:04;;;;;;;;;;;;;;;26.41;47.53;101301.78;2260788;76;50288;-72
2023/06/22 09:48:06;;;;;;;;;;;;;;;26.41;47.48;101297.72;2231305;78;51233;-72
2023/06/22 09:51:08;;;;;;;;;;;;;;;26.38;47.54;101293.55;2254362;78;50634;-74
2023/06/22 09:54:09;;;;;;;;;;;;;;;26.40;47.47;101302.31;2254425;79;51507;-74
2023/06/22 09:57:11;;;;;;;;;;;;;;;26.39;47.46;101295.23;2230784;77;53501;-72
2023/06/22 10:00:13;;;;;;;;;;;;;;;26.41;47.36;101289.58;2231669;79;50152;-72
2023/06/22 10:03:15;;;;;;;;;;;;;;;26.39;47.09;101287.63;2231497;79;51681;-72
2023/06/22 10:06:16;;;;;;;;;;;;;;;26.38;47.32;101291.37;2230966;77;51492;-72
2023/06/22 10:09:18;;;;;;;;;;;;;;;26.41;47.38;101296.36;2254376;79;51396;-72
2023/06/22 10:12:20;;;;;;;;;;;;;;;26.42;47.38;101293.44;2250516;76;52464;-72
2023/06/22 10:15:21;;;;;;;;;;;;;;;26.41;47.31;101290.43;2232752;77;51459;-72
2023/06/22 10:18:23;;;;;;;;;;;;;;;26.43;47.33;101286.12;2254081;77;51478;-72
2023/06/22 10:21:26;;;;;;;;;;;;;;;26.44;47.19;101287.27;2231482;79;51603;-72
2023/06/22 10:24:28;;;;;;;;;;;;;;;26.48;47.04;101287.65;2231967;78;22396;-72
2023/06/22 10:27:29;;;;;;;;;;;;;;;26.46;46.99;101280.25;2230904;79;50253;-73
2023/06/22 10:30:31;;;;;;;;;;;;;;;26.45;46.81;101291.63;2254258;78;50423;-72
2023/06/22 10:33:32;;;;;;;;;;;;;;;26.46;46.91;101280.25;2231224;79;52209;-72
2023/06/22 10:36:34;;;;;;;;;;;;;;;26.43;47.15;101277.98;2207275;79;51711;-73
2023/06/22 10:39:35;;;;;;;;;;;;;;;26.45;47.14;101273.17;2254563;77;51578;-72
2023/06/22 10:42:37;;;;;;;;;;;;;;;26.44;47.00;101270.16;2274001;75;51441;-72
2023/06/22 10:45:39;;;;;;;;;;;;;;;26.44;47.21;101268.81;2254305;78;51433;-71
2023/06/22 10:48:40;;;;;;;;;;;;;;;26.45;47.19;101274.53;2230843;79;52348;-72
2023/06/22 10:51:42;;;;;;;;;;;;;;;26.44;47.09;101266.09;2231169;77;51542;-72
2023/06/22 10:54:43;;;;;;;;;;;;;;;26.44;47.20;101257.95;2254385;77;51317;-72
2023/06/22 10:57:46;;;;;;;;;;;;;;;26.47;47.02;101262.40;2230947;77;50112;-72
2023/06/22 11:00:48;;;;;;;;;;;;;;;26.45;46.94;101251.46;2207526;79;51004;-72
2023/06/22 11:03:50;;;;;;;;;;;;;;;26.44;46.99;101251.17;2254225;77;51485;-71
2023/06/22 11:06:52;;;;;;;;;;;;;;;26.43;46.95;101245.42;2254012;79;50793;-72
2023/06/22 11:09:53;;;;;;;;;;;;;;;26.43;47.01;101243.53;2231250;79;51413;-71
2023/06/22 11:12:57;;;;;;;;;;;;;;;26.44;46.87;101244.38;2273250;76;51593;-72
2023/06/22 11:15:58;;;;;;;;;;;;;;;26.43;46.88;101237.28;2231425;79;50129;-71
2023/06/22 11:19:00;;;;;;;;;;;;;;;26.43;47.02;101242.70;2230841;78;50235;-71
2023/06/22 11:22:01;;;;;;;;;;;;;;;26.41;46.99;101240.23;2231148;79;50622;-72
2023/06/22 11:25:03;;;;;;;;;;;;;;;26.44;47.04;101235.71;2207392;78;50030;-73
2023/06/22 11:28:05;;;;;;;;;;;;;;;26.41;46.96;101225.30;2231151;79;50073;-73
2023/06/22 11:31:07;;;;;;;;;;;;;;;26.44;46.97;101230.81;2254232;77;50273;-73
2023/06/22 11:34:08;;;;;;;;;;;;;;;26.44;47.04;101226.75;2254324;78;51513;-72
2023/06/22 11:37:10;;;;;;;;;;;;;;;26.42;46.82;101216.09;2254007;77;51628;-71
2023/06/22 11:40:12;;;;;;;;;;;;;;;26.44;46.86;101215.36;2231395;79;50245;-72
2023/06/22 11:43:14;;;;;;;;;;;;;;;26.43;46.76;101208.25;2233097;78;50188;-72
2023/06/22 11:46:16;;;;;;;;;;;;;;;26.44;46.93;101205.03;2232562;77;51510;-72
2023/06/22 11:49:18;;;;;;;;;;;;;;;26.45;46.81;101213.47;2242819;77;52385;-69
2023/06/22 11:52:19;;;;;;;;;;;;;;;26.44;46.72;101222.14;2254445;78;51410;-72
2023/06/22 11:55:21;;;;;;;;;;;;;;;26.46;46.79;101221.41;2231999;79;50062;-72
2023/06/22 11:58:22;;;;;;;;;;;;;;;26.45;46.93;101217.01;2254194;77;50376;-72
2023/06/22 12:01:24;;;;;;;;;;;;;;;26.50;46.55;101229.38;2231527;79;52429;-72
2023/06/22 12:04:26;;;;;;;;;;;;;;;26.48;46.59;101218.45;2231458;77;51502;-72
2023/06/22 12:07:28;;;;;;;;;;;;;;;26.49;46.49;101215.52;2254243;79;50836;-72
2023/06/22 12:10:29;;;;;;;;;;;;;;;26.55;46.32;101213.83;2254379;77;51478;-71
2023/06/22 12:13:31;;;;;;;;;;;;;;;26.57;46.08;101213.08;2207137;79;52607;-73
2023/06/22 12:16:32;;;;;;;;;;;;;;;26.51;44.99;101209.86;2227630;79;51509;-74
2023/06/22 12:19:34;;;;;;;;;;;;;;;26.55;45.24;101200.80;2275392;76;51346;-74
2023/06/22 12:22:37;;;;;;;;;;;;;;;26.55;44.91;101200.26;2257291;78;51496;-74
2023/06/22 12:25:39;;;;;;;;;;;;;;;26.56;45.35;101197.83;2233894;78;51211;-74
2023/06/22 12:28:40;;;;;;;;;;;;;;;26.57;45.04;101181.88;2256823;77;50625;-73
2023/06/22 12:31:42;;;;;;;;;;;;;;;26.55;44.67;101179.08;2232522;77;51463;-73
2023/06/22 12:34:44;;;;;;;;;;;;;;;26.55;44.81;101181.26;2253600;77;50262;-74
2023/06/22 12:37:45;;;;;;;;;;;;;;;26.56;44.62;101164.44;2230786;77;51082;-74
2023/06/22 12:40:49;;;;;;;;;;;;;;;26.58;45.49;101164.52;2231304;79;50263;-73
2023/06/22 12:43:50;;;;;;;;;;;;;;;26.61;45.17;101166.78;2254257;77;22393;-72
2023/06/22 12:46:52;;;;;;;;;;;;;;;26.62;44.66;101152.17;2253879;78;51552;-71
2023/06/22 12:49:53;;;;;;;;;;;;;;;26.62;44.86;101154.06;2206736;77;51679;-71
2023/06/22 12:52:55;;;;;;;;;;;;;;;26.61;44.66;101155.92;2254223;77;50645;-73
2023/06/22 12:55:56;;;;;;;;;;;;;;;26.61;44.72;101145.60;2255344;78;50385;-72
2023/06/22 12:58:59;;;;;;;;;;;;;;;26.63;44.86;101132.11;2233867;78;50624;-73
2023/06/22 13:02:01;;;;;;;;;;;;;;;26.64;44.75;101150.07;2233353;78;51878;-73
2023/06/22 13:05:05;;;;;;;;;;;;;;;26.64;45.22;101146.00;2270424;77;50405;-73
2023/06/22 13:08:06;;;;;;;;;;;;;;;26.66;44.58;101134.36;2257171;79;24748;-73
2023/06/22 13:11:08;;;;;;;;;;;;;;;26.66;44.65;101129.47;2246990;77;50261;-72
2023/06/22 13:14:09;;;;;;;;;;;;;;;26.66;44.60;101127.58;2253894;77;51142;-73
2023/06/22 13:17:12;;;;;;;;;;;;;;;26.67;44.81;101125.19;2282289;75;51689;-72
2023/06/22 13:20:14;;;;;;;;;;;;;;;26.68;44.83;101129.55;2271548;77;51526;-73
2023/06/22 13:23:15;;;;;;;;;;;;;;;26.71;44.96;101114.69;2207097;79;51161;-72
2023/06/22 13:26:17;;;;;;;;;;;;;;;26.73;44.99;101119.91;2246796;76;51183;-72
2023/06/22 13:29:18;;;;;;;;;;;;;;;26.72;44.88;101105.51;2275144;77;50271;-72
2023/06/22 13:32:20;;;;;;;;;;;;;;;26.76;44.75;101114.84;2245361;78;50632;-72
2023/06/22 13:35:22;;;;;;;;;;;;;;;26.76;44.65;101112.66;2256538;79;51488;-72
2023/06/22 13:38:23;;;;;;;;;;;;;;;26.77;44.41;101108.88;2210016;79;51879;-72
2023/06/22 13:41:25;;;;;;;;;;;;;;;26.78;44.38;101100.52;2234018;79;50701;-72
2023/06/22 13:44:28;;;;;;;;;;;;;;;26.79;44.26;101104.87;2257316;79;50320;-72
2023/06/22 13:47:30;;;;;;;;;;;;;;;26.78;44.08;101100.52;2258061;79;51617;-73
2023/06/22 13:50:32;;;;;;;;;;;;;;;26.79;44.00;101086.41;2208686;78;51745;-72
2023/06/22 13:53:33;;;;;;;;;;;;;;;26.80;43.87;101086.19;2201524;80;51477;-72
2023/06/22 13:56:35;;;;;;;;;;;;;;;26.83;43.86;101072.69;2222438;78;50697;-73
2023/06/22 13:59:37;;;;;;;;;;;;;;;26.83;43.79;101062.66;2222589;80;50650;-71
2023/06/22 14:02:39;;;;;;;;;;;;;;;26.84;43.70;101062.12;2226019;78;50934;-72
2023/06/22 14:05:41;;;;;;;;;;;;;;;26.84;43.66;101057.51;2235262;79;51662;-73
2023/06/22 14:08:43;;;;;;;;;;;;;;;26.87;43.62;101045.36;2212957;78;50133;-72
2023/06/22 14:11:44;;;;;;;;;;;;;;;26.89;43.52;101045.97;2199254;79;50382;-72
2023/06/22 14:14:46;;;;;;;;;;;;;;;26.90;43.52;101041.68;2224480;78;52509;-73
2023/06/22 14:17:47;;;;;;;;;;;;;;;26.91;43.51;101043.86;2222456;79;50724;-72
2023/06/22 14:20:49;;;;;;;;;;;;;;;26.92;43.51;101042.28;2223568;79;50704;-73
2023/06/22 14:23:51;;;;;;;;;;;;;;;26.92;43.38;101040.07;2226683;79;50877;-71
2023/06/22 14:26:52;;;;;;;;;;;;;;;26.96;43.44;101032.31;2177174;80;51168;-70
2023/06/22 14:29:54;;;;;;;;;;;;;;;26.96;43.45;101029.59;2199110;80;50262;-72
2023/06/22 14:32:55;;;;;;;;;;;;;;;26.96;43.41;101023.63;2252429;77;50649;-71
2023/06/22 14:35:57;;;;;;;;;;;;;;;26.99;43.40;101024.52;2257296;78;51388;-71
2023/06/22 14:38:59;;;;;;;;;;;;;;;26.98;43.34;101021.52;2233660;78;51672;-72
2023/06/22 14:42:00;;;;;;;;;;;;;;;27.00;43.30;101025.34;2234059;78;51530;-73
2023/06/22 14:45:02;;;;;;;;;;;;;;;27.00;43.29;101019.91;2232095;79;51548;-72
2023/06/22 14:48:04;;;;;;;;;;;;;;;26.99;43.27;101012.30;2231204;79;50728;-73
2023/06/22 14:51:05;;;;;;;;;;;;;;;27.01;43.11;101008.83;2207389;77;50855;-72
2023/06/22 14:54:07;;;;;;;;;;;;;;;27.02;43.18;100994.72;2231262;79;49714;-73
2023/06/22 14:57:08;;;;;;;;;;;;;;;27.02;43.20;100987.39;2254164;78;50697;-72
2023/06/22 15:00:10;;;;;;;;;;;;;;;27.03;43.15;100969.23;2231348;79;50321;-72
2023/06/22 15:03:16;;;;;;;;;;;;;;;27.05;43.11;100960.30;2254240;78;50261;-73
2023/06/22 15:06:16;;;;;;;;;;;;;;;27.06;43.00;100961.44;2231891;77;23344;-73
2023/06/22 15:09:17;;;;;;;;;;;;;;;27.06;42.92;100960.08;2231642;79;50264;-73
2023/06/22 15:12:19;;;;;;;;;;;;;;;27.08;42.96;100959.86;2239152;77;50674;-72
2023/06/22 15:15:20;;;;;;;;;;;;;;;27.10;42.83;100953.13;2247236;78;52555;-72
2023/06/22 15:18:22;;;;;;;;;;;;;;;27.11;42.87;100943.91;2233101;79;51495;-72
2023/06/22 15:21:25;;;;;;;;;;;;;;;27.11;42.81;100949.34;2257262;77;51525;-72
2023/06/22 15:24:26;;;;;;;;;;;;;;;27.13;42.96;100949.94;2234784;77;50277;-72
2023/06/22 15:27:28;;;;;;;;;;;;;;;27.14;42.92;100962.98;2209813;79;51126;-73
2023/06/22 15:30:30;;;;;;;;;;;;;;;27.14;42.99;100962.98;2257159;79;50729;-73
2023/06/22 15:33:32;;;;;;;;;;;;;;;27.12;43.05;100955.06;2234150;79;50283;-72